Terminal Aerodrome Forecast
Issued by NWS

Home | Current Version | Previous Version | Text Only | Print | Product List | Glossary On
Versions: 1 2 3 4 5 6 7 8 9 10 11 12 13 14 15 16 17 18 19
000
FTUS41 KGYX 201720
TAFPSM
TAF
KPSM 201720Z 2018/2118 04005KT P6SM BKN100
     FM202100 VRB04KT P6SM OVC050
     FM210900 36005KT P6SM OVC025
      TEMPO 2111/2115 5SM -SN OVC015
     FM211500 01005KT P6SM OVC015 PROB30 2115/2118 2SM -SN OVC010=

USA.gov is the U.S. government's official web portal to all federal, state and local government web resources and services.